createdAt,value
2022-10-18T00:01:09.276Z,20.18
2022-10-18T00:06:15.638Z,20.20
2022-10-18T00:08:43.587Z,20.24
2022-10-18T00:11:11.987Z,20.03
2022-10-18T00:13:39.926Z,20.21
2022-10-18T00:16:13.336Z,20.19
2022-10-18T00:18:42.142Z,20.08
2022-10-18T00:21:16.555Z,20.17
2022-10-18T00:23:46.879Z,20.24
2022-10-18T00:26:20.900Z,20.10
2022-10-18T00:28:55.208Z,20.23
2022-10-18T00:31:29.407Z,20.20
2022-10-18T00:34:00.770Z,19.95
2022-10-18T00:36:30.659Z,20.18
2022-10-18T00:38:59.118Z,20.18
2022-10-18T00:41:30.499Z,20.04
2022-10-18T00:44:00.523Z,20.01
2022-10-18T00:46:31.398Z,20.05
2022-10-18T00:49:03.030Z,20.13
2022-10-18T00:51:44.520Z,20.19
2022-10-18T00:54:15.394Z,19.97
2022-10-18T00:56:45.207Z,19.83
2022-10-18T00:59:16.147Z,19.98
2022-10-18T01:01:46.045Z,19.56
2022-10-18T01:04:15.991Z,19.63
2022-10-18T01:07:01.586Z,19.58
2022-10-18T01:09:42.187Z,19.62
2022-10-18T01:12:33.222Z,19.51
2022-10-18T01:15:06.238Z,19.62
2022-10-18T01:17:50.157Z,19.63
2022-10-18T01:20:29.938Z,19.75
2022-10-18T01:23:29.576Z,19.56
2022-10-18T01:26:14.087Z,19.58
2022-10-18T01:28:54.054Z,19.68
2022-10-18T01:31:46.158Z,19.52
2022-10-18T01:34:17.358Z,19.69
2022-10-18T01:36:51.246Z,19.57
2022-10-18T01:39:28.369Z,19.74
2022-10-18T01:41:59.998Z,19.62
2022-10-18T01:44:31.708Z,19.55
2022-10-18T01:47:00.836Z,19.73
2022-10-18T01:49:29.046Z,19.51
2022-10-18T01:51:57.087Z,19.51
2022-10-18T01:54:40.458Z,19.62
2022-10-18T01:57:31.238Z,19.60
2022-10-18T02:00:24.660Z,19.69
2022-10-18T02:03:07.217Z,19.78
2022-10-18T02:05:57.717Z,19.58
2022-10-18T02:08:39.428Z,19.54
2022-10-18T02:11:11.057Z,19.40
2022-10-18T02:14:09.787Z,19.46
2022-10-18T02:16:47.337Z,19.42
2022-10-18T02:19:18.998Z,19.27
2022-10-18T02:21:48.816Z,19.24
2022-10-18T02:24:18.877Z,19.39
2022-10-18T02:26:47.648Z,19.46
2022-10-18T02:29:16.219Z,19.25
2022-10-18T02:31:47.679Z,19.30
2022-10-18T02:34:48.706Z,19.37
2022-10-18T02:37:18.951Z,19.65
2022-10-18T02:39:49.566Z,19.42
2022-10-18T02:42:18.067Z,19.55
2022-10-18T02:44:45.918Z,19.25
2022-10-18T02:47:14.257Z,19.30
2022-10-18T02:49:42.190Z,19.22
2022-10-18T02:52:10.267Z,19.16
2022-10-18T02:54:38.416Z,19.27
2022-10-18T02:57:06.515Z,19.29
2022-10-18T02:59:34.322Z,19.41
2022-10-18T03:02:02.470Z,19.26
2022-10-18T03:04:30.583Z,19.32
2022-10-18T03:06:59.352Z,19.22
2022-10-18T03:09:27.421Z,19.25
2022-10-18T03:11:55.525Z,19.35
2022-10-18T03:14:23.608Z,19.25
2022-10-18T03:16:51.918Z,19.19
2022-10-18T03:19:19.928Z,19.52
2022-10-18T03:21:48.077Z,19.31
2022-10-18T03:24:16.145Z,19.35
2022-10-18T03:26:44.457Z,19.22
2022-10-18T03:29:12.516Z,18.89
2022-10-18T03:31:40.630Z,19.15
2022-10-18T03:34:08.598Z,19.08
2022-10-18T03:36:36.927Z,19.06
2022-10-18T03:39:05.006Z,18.75
2022-10-18T03:41:33.288Z,18.88
2022-10-18T03:44:01.248Z,18.93
2022-10-18T03:46:29.416Z,18.57
2022-10-18T03:48:57.407Z,18.48
2022-10-18T03:51:25.627Z,18.48
2022-10-18T03:53:53.566Z,18.45
2022-10-18T03:56:21.742Z,18.15
2022-10-18T03:58:49.686Z,18.32
2022-10-18T04:01:17.911Z,18.42
2022-10-18T04:03:45.888Z,18.61
2022-10-18T04:06:14.030Z,18.66
2022-10-18T04:08:41.889Z,18.71
2022-10-18T04:11:11.580Z,18.57
2022-10-18T04:13:39.487Z,18.74
2022-10-18T04:16:07.805Z,18.73
2022-10-18T04:18:35.708Z,18.73
2022-10-18T04:21:04.041Z,18.84
2022-10-18T04:23:35.056Z,18.85
2022-10-18T04:26:07.057Z,18.84
2022-10-18T04:28:35.853Z,18.96
2022-10-18T04:31:04.047Z,18.96
2022-10-18T04:33:32.238Z,19.14
2022-10-18T04:36:00.417Z,19.26
2022-10-18T04:38:28.667Z,19.01
2022-10-18T04:40:56.911Z,19.06
2022-10-18T04:43:24.837Z,19.17
2022-10-18T04:45:53.042Z,18.99
2022-10-18T04:48:21.580Z,18.93
2022-10-18T04:50:51.642Z,18.64
2022-10-18T04:53:19.700Z,18.81
2022-10-18T04:55:51.457Z,18.92
2022-10-18T04:58:20.064Z,18.38
2022-10-18T05:00:48.909Z,18.29
2022-10-18T05:03:17.638Z,18.10
2022-10-18T05:06:03.065Z,18.22
2022-10-18T05:08:33.877Z,18.32
2022-10-18T05:11:03.544Z,18.40
2022-10-18T05:14:22.944Z,18.29
2022-10-18T05:16:51.155Z,18.54
2022-10-18T05:19:19.002Z,18.66
2022-10-18T05:21:47.365Z,18.69
2022-10-18T05:24:15.327Z,18.69
2022-10-18T05:26:43.507Z,18.66
2022-10-18T05:29:11.479Z,18.60
2022-10-18T05:32:30.072Z,18.65
2022-10-18T05:35:27.241Z,18.64
2022-10-18T05:38:00.538Z,18.66
2022-10-18T05:40:33.489Z,18.62
2022-10-18T05:43:01.830Z,18.63
2022-10-18T05:45:29.885Z,18.64
2022-10-18T05:47:58.160Z,18.74
2022-10-18T05:50:26.329Z,18.69
2022-10-18T05:53:06.903Z,18.66
2022-10-18T05:55:46.406Z,18.91
2022-10-18T05:58:14.811Z,18.88
2022-10-18T06:00:42.934Z,18.74
2022-10-18T06:03:11.390Z,18.71
2022-10-18T06:08:13.556Z,18.76
2022-10-18T06:10:42.773Z,18.95
2022-10-18T06:13:14.219Z,19.08
2022-10-18T06:15:42.541Z,19.04
2022-10-18T06:18:11.026Z,19.30
2022-10-18T06:20:39.091Z,19.46
2022-10-18T06:23:07.421Z,19.51
2022-10-18T06:25:35.773Z,19.66
2022-10-18T06:28:07.941Z,19.73
2022-10-18T06:30:38.311Z,19.94
2022-10-18T06:33:06.581Z,19.74
2022-10-18T06:35:34.679Z,19.81
2022-10-18T06:38:03.070Z,19.83
2022-10-18T06:40:31.241Z,20.07
2022-10-18T06:43:19.663Z,20.10
2022-10-18T06:45:49.555Z,20.22
2022-10-18T06:51:00.461Z,20.32
2022-10-18T06:53:32.220Z,20.65
2022-10-18T06:56:10.333Z,20.63
2022-10-18T06:58:39.502Z,20.69
2022-10-18T07:01:19.942Z,20.82
2022-10-18T07:03:49.862Z,20.93
2022-10-18T07:06:19.941Z,21.00
2022-10-18T07:08:50.271Z,20.78
2022-10-18T07:11:25.325Z,20.85
2022-10-18T07:14:00.640Z,20.88
2022-10-18T07:16:29.171Z,20.96
2022-10-18T07:18:57.441Z,21.23
2022-10-18T07:21:28.066Z,20.91
2022-10-18T07:23:57.837Z,20.82
2022-10-18T07:26:31.777Z,21.06
2022-10-18T07:29:08.220Z,21.45
2022-10-18T07:31:38.759Z,21.40
2022-10-18T07:34:08.337Z,21.66
2022-10-18T07:36:36.415Z,21.25
2022-10-18T07:39:05.320Z,21.41
2022-10-18T07:41:34.327Z,21.55
2022-10-18T07:44:04.137Z,21.91
2022-10-18T07:46:32.356Z,21.81
2022-10-18T07:49:00.904Z,21.99
2022-10-18T07:51:31.335Z,21.90
2022-10-18T07:53:59.905Z,22.31
2022-10-18T07:56:28.018Z,22.69
2022-10-18T07:58:57.077Z,23.10
2022-10-18T08:01:26.566Z,22.88
2022-10-18T08:03:55.012Z,23.25
2022-10-18T08:06:23.796Z,23.16
2022-10-18T08:08:52.734Z,23.61
2022-10-18T08:11:23.860Z,23.81
2022-10-18T08:13:53.679Z,23.19
2022-10-18T08:16:24.566Z,23.45
2022-10-18T08:18:53.677Z,24.13
2022-10-18T08:21:22.091Z,23.45
2022-10-18T08:23:51.243Z,23.18
2022-10-18T08:26:21.407Z,23.11
2022-10-18T08:28:58.171Z,23.24
2022-10-18T08:31:31.994Z,23.24
2022-10-18T08:34:00.734Z,23.94
2022-10-18T08:36:28.737Z,23.52
2022-10-18T08:38:56.913Z,23.52
2022-10-18T08:41:43.625Z,23.76
2022-10-18T08:44:23.697Z,24.12
2022-10-18T08:46:56.670Z,24.16
2022-10-18T08:49:44.180Z,23.81
2022-10-18T08:52:30.096Z,23.74
2022-10-18T08:55:02.331Z,23.76
2022-10-18T08:57:31.963Z,24.08
2022-10-18T09:00:06.581Z,23.47
2022-10-18T09:02:37.758Z,23.54
2022-10-18T09:05:06.059Z,24.25
2022-10-18T09:08:11.978Z,24.24
2022-10-18T09:11:05.922Z,24.32
2022-10-18T09:13:57.388Z,24.06
2022-10-18T09:16:55.230Z,24.26
2022-10-18T09:19:47.365Z,24.15
2022-10-18T09:22:19.329Z,24.70
2022-10-18T09:25:06.960Z,25.06
2022-10-18T09:27:51.539Z,25.09
2022-10-18T09:30:59.617Z,25.79
2022-10-18T09:33:46.919Z,26.62
2022-10-18T09:36:39.288Z,25.79
2022-10-18T09:39:14.589Z,26.76
2022-10-18T09:42:08.060Z,26.30
2022-10-18T09:44:44.758Z,27.08
2022-10-18T09:47:39.609Z,27.69
2022-10-18T09:50:29.669Z,28.02
2022-10-18T09:53:35.542Z,27.13
2022-10-18T09:56:30.428Z,27.30
2022-10-18T09:58:58.630Z,27.99
2022-10-18T10:01:30.721Z,28.77
2022-10-18T10:03:58.941Z,29.24
2022-10-18T10:06:30.591Z,29.35
2022-10-18T10:09:07.968Z,29.15
2022-10-18T10:11:45.953Z,29.57
2022-10-18T10:14:24.028Z,29.86
2022-10-18T10:16:56.522Z,28.57
2022-10-18T10:19:35.313Z,29.29
2022-10-18T10:22:11.079Z,29.65
2022-10-18T10:24:54.564Z,30.23
2022-10-18T10:27:34.044Z,30.47
2022-10-18T10:30:07.233Z,30.34
2022-10-18T10:32:48.823Z,30.44
2022-10-18T10:35:52.506Z,30.61
2022-10-18T10:38:27.498Z,30.95
2022-10-18T10:40:56.520Z,30.72
2022-10-18T10:43:39.214Z,29.99
2022-10-18T10:46:13.043Z,29.66
2022-10-18T10:48:47.087Z,30.76
2022-10-18T10:51:29.081Z,30.70
2022-10-18T10:54:23.512Z,31.36
2022-10-18T10:57:04.371Z,29.00
2022-10-18T10:59:46.652Z,30.23
2022-10-18T11:02:15.332Z,29.75
2022-10-18T11:04:49.121Z,29.42
2022-10-18T11:07:41.293Z,30.74
2022-10-18T11:10:35.154Z,31.20
2022-10-18T11:13:18.920Z,31.55
2022-10-18T11:15:52.851Z,31.63
2022-10-18T11:18:34.100Z,32.10
2022-10-18T11:21:31.958Z,31.91
2022-10-18T11:24:03.400Z,32.37
2022-10-18T11:27:13.863Z,32.39
2022-10-18T11:30:23.974Z,32.49
2022-10-18T11:33:18.263Z,32.05
2022-10-18T11:36:19.168Z,31.35
2022-10-18T11:39:01.244Z,31.09
2022-10-18T11:41:40.851Z,30.87
2022-10-18T11:44:17.680Z,31.11
2022-10-18T11:46:51.038Z,31.57
2022-10-18T11:49:43.059Z,30.67
2022-10-18T11:52:47.563Z,30.22
2022-10-18T11:55:27.654Z,29.62
2022-10-18T11:58:36.041Z,29.75
2022-10-18T12:01:13.681Z,30.65
2022-10-18T12:04:14.341Z,31.12
2022-10-18T12:06:45.730Z,30.58
2022-10-18T12:09:38.313Z,30.45
2022-10-18T12:12:29.937Z,31.10
2022-10-18T12:15:25.910Z,30.99
2022-10-18T12:17:57.470Z,31.34
2022-10-18T12:21:02.754Z,31.71
2022-10-18T12:23:42.924Z,31.52
2022-10-18T12:26:11.736Z,31.89
2022-10-18T12:29:17.192Z,32.32
2022-10-18T12:32:12.654Z,32.00
2022-10-18T12:34:57.440Z,32.68
2022-10-18T12:37:56.141Z,31.62
2022-10-18T12:40:33.682Z,32.62
2022-10-18T12:43:17.122Z,31.67
2022-10-18T12:45:57.963Z,30.86
2022-10-18T12:48:30.380Z,30.84
2022-10-18T12:51:04.866Z,31.01
2022-10-18T12:53:34.471Z,31.49
2022-10-18T12:56:34.591Z,31.19
2022-10-18T12:59:17.479Z,31.13
2022-10-18T13:01:54.816Z,32.39
2022-10-18T13:04:29.131Z,32.65
2022-10-18T13:07:19.371Z,32.62
2022-10-18T13:10:15.340Z,33.22
2022-10-18T13:13:38.775Z,32.72
2022-10-18T13:16:23.309Z,32.83
2022-10-18T13:19:18.011Z,32.46
2022-10-18T13:21:55.321Z,32.88
2022-10-18T13:24:38.031Z,33.19
2022-10-18T13:27:36.950Z,33.97
2022-10-18T13:30:17.834Z,34.00
2022-10-18T13:32:54.879Z,32.91
2022-10-18T13:35:52.371Z,33.86
2022-10-18T13:38:43.650Z,32.99
2022-10-18T13:41:17.300Z,33.04
2022-10-18T13:43:56.932Z,32.77
2022-10-18T13:46:34.400Z,32.75
2022-10-18T13:49:17.021Z,32.17
2022-10-18T13:52:08.440Z,32.28
2022-10-18T13:54:55.048Z,32.73
2022-10-18T13:58:05.599Z,33.04
2022-10-18T14:00:49.026Z,32.61
2022-10-18T14:03:59.022Z,32.64
2022-10-18T14:06:27.511Z,32.73
2022-10-18T14:09:25.522Z,33.14
2022-10-18T14:12:40.886Z,32.15
2022-10-18T14:15:23.810Z,31.94
2022-10-18T14:17:54.864Z,30.71
2022-10-18T14:20:27.156Z,32.24
2022-10-18T14:23:23.821Z,31.63
2022-10-18T14:26:06.021Z,32.04
2022-10-18T14:28:48.359Z,31.37
2022-10-18T14:31:22.809Z,32.47
2022-10-18T14:33:57.952Z,33.33
2022-10-18T14:36:31.032Z,32.25
2022-10-18T14:39:05.270Z,31.00
2022-10-18T14:41:37.129Z,31.64
2022-10-18T14:44:18.990Z,32.47
2022-10-18T14:47:12.253Z,33.32
2022-10-18T14:49:45.510Z,33.83
2022-10-18T14:52:24.033Z,33.33
2022-10-18T14:54:59.520Z,32.72
2022-10-18T14:57:35.273Z,33.75
2022-10-18T15:00:18.270Z,34.48
2022-10-18T15:02:46.870Z,34.54
2022-10-18T15:05:22.337Z,34.38
2022-10-18T15:07:52.372Z,34.72
2022-10-18T15:10:30.340Z,34.53
2022-10-18T15:13:11.178Z,34.30
2022-10-18T15:15:40.409Z,34.31
2022-10-18T15:18:19.612Z,34.57
2022-10-18T15:21:20.412Z,34.36
2022-10-18T15:23:50.379Z,33.77
2022-10-18T15:26:29.819Z,32.51
2022-10-18T15:29:01.681Z,32.45
2022-10-18T15:31:36.568Z,32.41
2022-10-18T15:34:14.650Z,31.62
2022-10-18T15:39:22.183Z,31.45
2022-10-18T15:41:55.984Z,30.71
2022-10-18T15:44:35.244Z,30.14
2022-10-18T15:47:12.771Z,29.98
2022-10-18T15:49:47.191Z,29.72
2022-10-18T15:52:38.306Z,29.81
2022-10-18T15:55:31.983Z,29.75
2022-10-18T15:58:11.522Z,29.53
2022-10-18T16:00:39.938Z,29.39
2022-10-18T16:03:11.488Z,29.06
2022-10-18T16:05:40.480Z,28.96
2022-10-18T16:08:28.977Z,28.89
2022-10-18T16:10:59.107Z,28.60
2022-10-18T16:13:27.762Z,28.55
2022-10-18T16:15:56.213Z,28.55
2022-10-18T16:18:25.302Z,28.25
2022-10-18T16:20:53.679Z,28.26
2022-10-18T16:23:26.991Z,28.05
2022-10-18T16:25:55.598Z,28.04
2022-10-18T16:28:26.153Z,27.93
2022-10-18T16:31:00.405Z,27.71
2022-10-18T16:33:28.812Z,27.79
2022-10-18T16:35:57.312Z,27.70
2022-10-18T16:38:35.339Z,27.73
2022-10-18T16:41:05.715Z,27.57
2022-10-18T16:43:35.349Z,27.30
2022-10-18T16:46:04.722Z,27.30
2022-10-18T16:48:33.337Z,27.26
2022-10-18T16:51:02.112Z,27.31
2022-10-18T16:53:30.137Z,27.10
2022-10-18T16:56:00.847Z,26.95
2022-10-18T16:58:30.143Z,26.96
2022-10-18T17:01:01.019Z,26.93
2022-10-18T17:03:31.072Z,26.78
2022-10-18T17:05:59.307Z,26.78
2022-10-18T17:08:28.433Z,26.54
2022-10-18T17:10:59.271Z,26.55
2022-10-18T17:13:27.297Z,26.54
2022-10-18T17:15:56.457Z,26.36
2022-10-18T17:18:30.725Z,26.27
2022-10-18T17:21:03.214Z,26.48
2022-10-18T17:23:31.543Z,26.27
2022-10-18T17:26:05.625Z,26.04
2022-10-18T17:28:35.445Z,25.92
2022-10-18T17:31:06.952Z,25.77
2022-10-18T17:33:35.363Z,25.69
2022-10-18T17:36:04.288Z,25.94
2022-10-18T17:38:32.323Z,25.70
2022-10-18T17:41:06.739Z,25.65
2022-10-18T17:43:34.816Z,25.56
2022-10-18T17:46:03.274Z,25.67
2022-10-18T17:48:31.557Z,25.57
2022-10-18T17:50:59.864Z,25.35
2022-10-18T17:53:29.387Z,25.17
2022-10-18T17:56:02.390Z,25.16
2022-10-18T17:58:31.631Z,25.16
2022-10-18T18:01:09.882Z,25.26
2022-10-18T18:03:38.079Z,25.24
2022-10-18T18:06:35.242Z,25.12
2022-10-18T18:09:13.229Z,25.13
2022-10-18T18:11:48.455Z,24.90
2022-10-18T18:14:17.876Z,25.12
2022-10-18T18:16:47.186Z,24.95
2022-10-18T18:19:16.243Z,24.82
2022-10-18T18:21:44.608Z,24.82
2022-10-18T18:24:14.229Z,24.77
2022-10-18T18:26:43.620Z,24.71
2022-10-18T18:29:12.997Z,24.83
2022-10-18T18:31:43.978Z,24.68
2022-10-18T18:34:12.555Z,24.66
2022-10-18T18:36:41.510Z,24.58
2022-10-18T18:39:25.839Z,24.69
2022-10-18T18:41:54.140Z,24.55
2022-10-18T18:44:22.867Z,24.41
2022-10-18T18:46:51.173Z,24.36
2022-10-18T18:49:19.338Z,24.32
2022-10-18T18:51:47.649Z,24.04
2022-10-18T18:54:16.273Z,24.09
2022-10-18T18:56:44.965Z,24.04
2022-10-18T18:59:14.572Z,23.85
2022-10-18T19:01:43.780Z,23.82
2022-10-18T19:04:12.229Z,24.22
2022-10-18T19:06:43.201Z,24.05
2022-10-18T19:09:22.073Z,24.21
2022-10-18T19:11:53.596Z,23.96
2022-10-18T19:14:25.308Z,23.86
2022-10-18T19:16:57.805Z,23.55
2022-10-18T19:19:28.723Z,23.65
2022-10-18T19:22:01.004Z,23.62
2022-10-18T19:24:31.178Z,23.57
2022-10-18T19:27:02.320Z,23.45
2022-10-18T19:29:33.338Z,23.66
2022-10-18T19:32:04.667Z,23.48
2022-10-18T19:34:37.947Z,23.33
2022-10-18T19:37:07.999Z,23.33
2022-10-18T19:39:37.617Z,23.46
2022-10-18T19:42:10.818Z,23.31
2022-10-18T19:44:43.289Z,23.15
2022-10-18T19:47:15.207Z,23.05
2022-10-18T19:49:44.417Z,23.26
2022-10-18T19:52:14.300Z,23.11
2022-10-18T19:54:46.158Z,23.00
2022-10-18T19:57:16.132Z,22.95
2022-10-18T19:59:44.605Z,23.06
2022-10-18T20:02:16.140Z,23.18
2022-10-18T20:04:44.714Z,22.90
2022-10-18T20:07:13.588Z,22.85
2022-10-18T20:09:42.470Z,22.88
2022-10-18T20:12:10.679Z,22.96
2022-10-18T20:14:39.139Z,22.86
2022-10-18T20:17:12.715Z,23.01
2022-10-18T20:19:41.670Z,22.95
2022-10-18T20:22:10.690Z,22.69
2022-10-18T20:24:40.454Z,22.74
2022-10-18T20:27:09.629Z,22.45
2022-10-18T20:29:38.153Z,22.54
2022-10-18T20:32:06.828Z,22.64
2022-10-18T20:34:35.528Z,22.55
2022-10-18T20:37:04.154Z,22.75
2022-10-18T20:39:34.159Z,22.65
2022-10-18T20:42:03.040Z,22.60
2022-10-18T20:44:34.080Z,22.41
2022-10-18T20:47:02.342Z,22.60
2022-10-18T20:49:30.420Z,22.37
2022-10-18T20:51:58.523Z,22.34
2022-10-18T20:54:27.383Z,22.57
2022-10-18T20:56:55.629Z,22.30
2022-10-18T20:59:23.644Z,22.47
2022-10-18T21:01:52.229Z,22.20
2022-10-18T21:04:20.556Z,22.05
2022-10-18T21:06:48.956Z,22.18
2022-10-18T21:09:19.590Z,22.17
2022-10-18T21:11:50.436Z,22.15
2022-10-18T21:14:20.495Z,22.05
2022-10-18T21:16:50.312Z,21.92
2022-10-18T21:19:25.001Z,21.90
2022-10-18T21:21:57.532Z,21.77
2022-10-18T21:24:26.916Z,21.74
2022-10-18T21:26:56.519Z,21.79
2022-10-18T21:29:25.163Z,21.86
2022-10-18T21:31:56.153Z,21.93
2022-10-18T21:34:24.205Z,22.01
2022-10-18T21:36:52.653Z,21.78
2022-10-18T21:41:57.755Z,21.99
2022-10-18T21:44:25.925Z,22.02
2022-10-18T21:46:55.364Z,21.77
2022-10-18T21:49:25.278Z,21.75
2022-10-18T21:51:53.636Z,21.65
2022-10-18T21:54:21.843Z,21.66
2022-10-18T21:56:51.604Z,21.63
2022-10-18T21:59:19.665Z,21.57
2022-10-18T22:01:47.964Z,21.38
2022-10-18T22:04:25.277Z,21.47
2022-10-18T22:06:53.766Z,21.62
2022-10-18T22:09:22.944Z,21.44
2022-10-18T22:11:53.517Z,21.57
2022-10-18T22:14:22.197Z,21.56
2022-10-18T22:16:51.274Z,21.53
2022-10-18T22:19:20.064Z,21.54
2022-10-18T22:21:48.610Z,21.69
2022-10-18T22:24:17.377Z,21.58
2022-10-18T22:26:46.636Z,21.52
2022-10-18T22:29:17.747Z,21.44
2022-10-18T22:31:51.997Z,21.26
2022-10-18T22:34:27.931Z,21.30
2022-10-18T22:36:56.955Z,21.25
2022-10-18T22:39:25.316Z,21.39
2022-10-18T22:41:56.595Z,21.40
2022-10-18T22:44:25.330Z,21.55
2022-10-18T22:46:53.834Z,21.32
2022-10-18T22:49:21.849Z,21.31
2022-10-18T22:51:50.191Z,21.32
2022-10-18T22:54:18.588Z,21.22
2022-10-18T22:56:46.865Z,21.05
2022-10-18T22:59:15.022Z,20.96
2022-10-18T23:01:43.317Z,20.94
2022-10-18T23:04:11.425Z,21.22
2022-10-18T23:06:40.414Z,20.92
2022-10-18T23:09:10.835Z,20.90
2022-10-18T23:11:39.305Z,20.95
2022-10-18T23:14:07.860Z,20.88
2022-10-18T23:16:36.154Z,20.99
2022-10-18T23:19:04.887Z,20.97
2022-10-18T23:21:34.467Z,20.90
2022-10-18T23:24:02.433Z,20.81
2022-10-18T23:26:30.880Z,20.86
2022-10-18T23:28:59.097Z,20.92
2022-10-18T23:31:33.163Z,20.84
2022-10-18T23:34:04.492Z,21.13
2022-10-18T23:36:34.436Z,21.02
2022-10-18T23:39:03.758Z,20.99
2022-10-18T23:41:32.792Z,20.79
2022-10-18T23:44:00.725Z,20.75
2022-10-18T23:46:29.097Z,20.70
2022-10-18T23:48:57.194Z,20.64
2022-10-18T23:51:25.430Z,20.79
2022-10-18T23:53:53.515Z,20.86
2022-10-18T23:56:21.754Z,20.83
2022-10-18T23:58:49.743Z,20.65
